Aérodrome :
LOGIN :

S'inscrire | Disclaimer

   EN    FR    IT 

 










Légende :    VFR   VFR Marginal   IFR   IFR Intensif   IFR Très Intensif
Visi : 
Plafond : 
>= 8 km
>= 3000ft
5 à 8 km
1000 à 3000 ft
1500m à 5 km
500 à 1000 ft
800 à 1500m
200 à 500 ft
< 800m
< 200 ft
Symboles :   Orages  Brouillard  Fortes neiges  Fortes précipitations  Vent > 20 kt
SIGMETs :   Divers  Orages  Givrage  Turbulence  Onde Orograph.  Cendres Volcan.






- Altitude de l'aérodrome : 458 ft


LFSI - St-Dizier

DERNIER METAR :
  • 211630Z AUTO 20015G25KT 9999 -RA SCT030/// BKN042/// OVC054/// ///TCU 10/08 Q0995

METARs EXPIRÉS :
  • 211600Z AUTO 17011KT 140V200 9999 -RA FEW021/// BKN029/// OVC038/// ///TCU 10/08 Q0995
  • 211530Z AUTO 16008KT 9999 -RA FEW025/// BKN030/// BKN039/// ///TCU 10/08 Q0996
  • 211500Z AUTO 19008KT 9999 SCT021 OVC027 10/07 Q0997
  • 211430Z AUTO 20008KT 9999 BKN021/// OVC027/// ///TCU 10/07 Q0997
  • 211400Z AUTO 22010KT 9999 BKN022/// OVC027/// ///TCU 10/06 Q0998

TAF TAF LFSI
Valide du 21 à 15h jusqu'au 22 à 15h UTC


211400Z 2115/2215 23015G25KT 9999 BKN020
BECMG 2116/2118 20015G30KT
TEMPO 2118/2207 20020G40KT 8000 SHRA BKN010 BKN030TCU BKN050
PROB40
TEMPO 2119/2124 2000 TSRAGS BKN015 BKN030CB BKN050
BECMG 2208/2210 36005G20KT 8000 RA SCT005 BKN020 BKN030



MET'MAP, la Météo Aéronautique d'un coup d'oeil ! - Copyright ORBIFLY Décembre 2007 - Disclaimer

ORBIFLY MET'MAP TEAM :

Programmation & Développement : Alexandra Zaïnal
Sur une idée originale de : Baudouin d'Aumeries
Assistance à la programmation : Marc-Olivier Méhu
Soutien technique & logistique : Manuel Goepfert

Contact : metmap@orbifly.com




SOURCES & CREDITS :

   NOAA